sensor_id;sensor_type;location;lat;lon;timestamp;P1;durP1;ratioP1;P2;durP2;ratioP2
6209;SDS011;3138;52.550;13.148;2023-02-16T00:00:50;123.20;;;38.43;;
6209;SDS011;3138;52.550;13.148;2023-02-16T00:03:18;118.10;;;38.10;;
6209;SDS011;3138;52.550;13.148;2023-02-16T00:05:47;125.60;;;42.93;;
6209;SDS011;3138;52.550;13.148;2023-02-16T00:08:14;146.33;;;37.70;;
6209;SDS011;3138;52.550;13.148;2023-02-16T00:10:42;141.63;;;38.00;;
6209;SDS011;3138;52.550;13.148;2023-02-16T00:13:31;102.33;;;32.43;;
6209;SDS011;3138;52.550;13.148;2023-02-16T00:16:10;116.20;;;36.57;;
6209;SDS011;3138;52.550;13.148;2023-02-16T00:18:39;103.40;;;36.23;;
6209;SDS011;3138;52.550;13.148;2023-02-16T00:21:06;98.63;;;35.03;;
6209;SDS011;3138;52.550;13.148;2023-02-16T00:23:33;79.50;;;34.40;;
6209;SDS011;3138;52.550;13.148;2023-02-16T00:26:01;82.70;;;33.70;;
6209;SDS011;3138;52.550;13.148;2023-02-16T00:28:29;65.17;;;31.30;;
6209;SDS011;3138;52.550;13.148;2023-02-16T00:30:55;70.37;;;33.80;;
6209;SDS011;3138;52.550;13.148;2023-02-16T00:33:22;67.93;;;33.17;;
6209;SDS011;3138;52.550;13.148;2023-02-16T00:35:49;99.90;;;32.80;;
6209;SDS011;3138;52.550;13.148;2023-02-16T00:38:16;154.63;;;30.50;;
6209;SDS011;3138;52.550;13.148;2023-02-16T00:40:43;91.97;;;32.83;;
6209;SDS011;3138;52.550;13.148;2023-02-16T00:43:12;121.67;;;30.77;;
6209;SDS011;3138;52.550;13.148;2023-02-16T00:45:50;84.07;;;30.00;;
6209;SDS011;3138;52.550;13.148;2023-02-16T00:48:17;85.90;;;29.40;;
6209;SDS011;3138;52.550;13.148;2023-02-16T00:50:45;88.93;;;31.73;;
6209;SDS011;3138;52.550;13.148;2023-02-16T00:53:11;71.00;;;29.87;;
6209;SDS011;3138;52.550;13.148;2023-02-16T00:55:39;83.67;;;32.20;;
6209;SDS011;3138;52.550;13.148;2023-02-16T00:58:07;82.43;;;30.47;;
6209;SDS011;3138;52.550;13.148;2023-02-16T01:00:41;71.17;;;28.10;;
6209;SDS011;3138;52.550;13.148;2023-02-16T01:03:13;58.77;;;30.00;;
6209;SDS011;3138;52.550;13.148;2023-02-16T01:05:43;60.50;;;28.70;;
6209;SDS011;3138;52.550;13.148;2023-02-16T01:08:11;70.43;;;29.30;;
6209;SDS011;3138;52.550;13.148;2023-02-16T01:10:56;61.80;;;27.50;;
6209;SDS011;3138;52.550;13.148;2023-02-16T01:13:37;57.37;;;29.90;;
6209;SDS011;3138;52.550;13.148;2023-02-16T01:16:13;58.37;;;28.77;;
6209;SDS011;3138;52.550;13.148;2023-02-16T01:18:41;55.53;;;28.83;;
6209;SDS011;3138;52.550;13.148;2023-02-16T01:21:08;47.47;;;27.03;;
6209;SDS011;3138;52.550;13.148;2023-02-16T01:23:35;58.17;;;27.90;;
6209;SDS011;3138;52.550;13.148;2023-02-16T01:26:02;52.07;;;27.90;;
6209;SDS011;3138;52.550;13.148;2023-02-16T01:28:32;74.23;;;30.80;;
6209;SDS011;3138;52.550;13.148;2023-02-16T01:31:02;90.90;;;30.40;;
6209;SDS011;3138;52.550;13.148;2023-02-16T01:33:29;59.47;;;28.30;;
6209;SDS011;3138;52.550;13.148;2023-02-16T01:35:56;59.53;;;29.80;;
6209;SDS011;3138;52.550;13.148;2023-02-16T01:38:24;59.00;;;28.60;;
6209;SDS011;3138;52.550;13.148;2023-02-16T01:40:55;52.60;;;27.83;;
6209;SDS011;3138;52.550;13.148;2023-02-16T01:43:29;58.00;;;27.97;;
6209;SDS011;3138;52.550;13.148;2023-02-16T01:46:04;50.50;;;25.90;;
6209;SDS011;3138;52.550;13.148;2023-02-16T01:48:36;57.80;;;29.47;;
6209;SDS011;3138;52.550;13.148;2023-02-16T01:51:04;49.90;;;27.40;;
6209;SDS011;3138;52.550;13.148;2023-02-16T01:53:37;57.77;;;27.83;;
6209;SDS011;3138;52.550;13.148;2023-02-16T01:56:14;53.60;;;26.53;;
6209;SDS011;3138;52.550;13.148;2023-02-16T01:58:49;47.00;;;25.10;;
6209;SDS011;3138;52.550;13.148;2023-02-16T02:01:34;45.27;;;24.80;;
6209;SDS011;3138;52.550;13.148;2023-02-16T02:04:09;48.70;;;25.70;;
6209;SDS011;3138;52.550;13.148;2023-02-16T02:07:02;48.97;;;26.37;;
6209;SDS011;3138;52.550;13.148;2023-02-16T02:09:30;48.20;;;24.60;;
6209;SDS011;3138;52.550;13.148;2023-02-16T02:12:05;47.23;;;24.17;;
6209;SDS011;3138;52.550;13.148;2023-02-16T02:14:38;49.93;;;25.87;;
6209;SDS011;3138;52.550;13.148;2023-02-16T02:17:07;45.90;;;24.30;;
6209;SDS011;3138;52.550;13.148;2023-02-16T02:19:40;43.80;;;23.20;;
6209;SDS011;3138;52.550;13.148;2023-02-16T02:22:18;47.83;;;24.73;;
6209;SDS011;3138;52.550;13.148;2023-02-16T02:25:30;46.07;;;23.60;;
6209;SDS011;3138;52.550;13.148;2023-02-16T02:28:16;45.00;;;23.50;;
6209;SDS011;3138;52.550;13.148;2023-02-16T02:30:50;47.37;;;25.10;;
6209;SDS011;3138;52.550;13.148;2023-02-16T02:33:25;47.70;;;24.37;;
6209;SDS011;3138;52.550;13.148;2023-02-16T02:36:07;49.50;;;25.03;;
6209;SDS011;3138;52.550;13.148;2023-02-16T02:38:45;45.93;;;24.20;;
6209;SDS011;3138;52.550;13.148;2023-02-16T02:41:20;42.20;;;23.97;;
6209;SDS011;3138;52.550;13.148;2023-02-16T02:44:12;43.37;;;23.20;;
6209;SDS011;3138;52.550;13.148;2023-02-16T02:46:43;41.27;;;23.00;;
6209;SDS011;3138;52.550;13.148;2023-02-16T02:49:09;42.83;;;22.77;;
6209;SDS011;3138;52.550;13.148;2023-02-16T02:51:36;45.50;;;23.17;;
6209;SDS011;3138;52.550;13.148;2023-02-16T02:54:05;42.10;;;24.37;;
6209;SDS011;3138;52.550;13.148;2023-02-16T02:56:53;42.97;;;24.40;;
6209;SDS011;3138;52.550;13.148;2023-02-16T02:59:43;39.43;;;22.10;;
6209;SDS011;3138;52.550;13.148;2023-02-16T03:02:32;41.80;;;21.77;;
6209;SDS011;3138;52.550;13.148;2023-02-16T03:05:02;40.20;;;22.90;;
6209;SDS011;3138;52.550;13.148;2023-02-16T03:07:32;40.57;;;21.43;;
6209;SDS011;3138;52.550;13.148;2023-02-16T03:10:16;39.13;;;22.07;;
6209;SDS011;3138;52.550;13.148;2023-02-16T03:13:02;46.07;;;23.07;;
6209;SDS011;3138;52.550;13.148;2023-02-16T03:15:34;39.47;;;20.90;;
6209;SDS011;3138;52.550;13.148;2023-02-16T03:18:03;39.10;;;22.77;;
6209;SDS011;3138;52.550;13.148;2023-02-16T03:20:49;41.43;;;21.90;;
6209;SDS011;3138;52.550;13.148;2023-02-16T03:23:33;43.50;;;23.20;;
6209;SDS011;3138;52.550;13.148;2023-02-16T03:26:20;36.47;;;21.80;;
6209;SDS011;3138;52.550;13.148;2023-02-16T03:29:05;41.23;;;19.43;;
6209;SDS011;3138;52.550;13.148;2023-02-16T03:31:44;36.40;;;21.33;;
6209;SDS011;3138;52.550;13.148;2023-02-16T03:34:12;39.80;;;21.87;;
6209;SDS011;3138;52.550;13.148;2023-02-16T03:36:40;47.90;;;23.03;;
6209;SDS011;3138;52.550;13.148;2023-02-16T03:39:09;36.17;;;20.30;;
6209;SDS011;3138;52.550;13.148;2023-02-16T03:41:37;44.67;;;22.90;;
6209;SDS011;3138;52.550;13.148;2023-02-16T03:44:06;39.33;;;22.60;;
6209;SDS011;3138;52.550;13.148;2023-02-16T03:46:34;37.43;;;21.63;;
6209;SDS011;3138;52.550;13.148;2023-02-16T03:49:02;34.87;;;22.10;;
6209;SDS011;3138;52.550;13.148;2023-02-16T03:51:29;36.50;;;21.87;;
6209;SDS011;3138;52.550;13.148;2023-02-16T03:53:56;37.70;;;21.40;;
6209;SDS011;3138;52.550;13.148;2023-02-16T03:56:23;40.03;;;22.10;;
6209;SDS011;3138;52.550;13.148;2023-02-16T03:58:50;42.10;;;23.73;;
6209;SDS011;3138;52.550;13.148;2023-02-16T04:01:17;31.00;;;19.90;;
6209;SDS011;3138;52.550;13.148;2023-02-16T04:03:44;41.13;;;20.03;;
6209;SDS011;3138;52.550;13.148;2023-02-16T04:06:12;41.73;;;22.10;;
6209;SDS011;3138;52.550;13.148;2023-02-16T04:08:39;37.47;;;20.60;;
6209;SDS011;3138;52.550;13.148;2023-02-16T04:11:06;36.07;;;20.90;;
6209;SDS011;3138;52.550;13.148;2023-02-16T04:13:47;35.13;;;19.80;;
6209;SDS011;3138;52.550;13.148;2023-02-16T04:16:13;32.37;;;19.97;;
6209;SDS011;3138;52.550;13.148;2023-02-16T04:18:40;37.60;;;22.60;;
6209;SDS011;3138;52.550;13.148;2023-02-16T04:21:07;36.20;;;19.77;;
6209;SDS011;3138;52.550;13.148;2023-02-16T04:23:35;37.30;;;19.80;;
6209;SDS011;3138;52.550;13.148;2023-02-16T04:26:02;35.40;;;19.77;;
6209;SDS011;3138;52.550;13.148;2023-02-16T04:28:29;28.83;;;18.00;;
6209;SDS011;3138;52.550;13.148;2023-02-16T04:30:56;38.90;;;20.80;;
6209;SDS011;3138;52.550;13.148;2023-02-16T04:33:23;35.33;;;21.77;;
6209;SDS011;3138;52.550;13.148;2023-02-16T04:35:50;39.10;;;20.10;;
6209;SDS011;3138;52.550;13.148;2023-02-16T04:38:16;32.63;;;20.00;;
6209;SDS011;3138;52.550;13.148;2023-02-16T04:40:45;39.60;;;22.17;;
6209;SDS011;3138;52.550;13.148;2023-02-16T04:43:11;37.60;;;21.53;;
6209;SDS011;3138;52.550;13.148;2023-02-16T04:45:38;32.43;;;19.33;;
6209;SDS011;3138;52.550;13.148;2023-02-16T04:48:07;40.63;;;21.07;;
6209;SDS011;3138;52.550;13.148;2023-02-16T04:50:35;40.47;;;22.37;;
6209;SDS011;3138;52.550;13.148;2023-02-16T04:53:02;43.50;;;20.63;;
6209;SDS011;3138;52.550;13.148;2023-02-16T04:55:29;38.90;;;22.40;;
6209;SDS011;3138;52.550;13.148;2023-02-16T04:57:57;34.60;;;21.50;;
6209;SDS011;3138;52.550;13.148;2023-02-16T05:00:24;39.83;;;21.23;;
6209;SDS011;3138;52.550;13.148;2023-02-16T05:02:51;46.10;;;25.87;;
6209;SDS011;3138;52.550;13.148;2023-02-16T05:05:18;83.43;;;43.73;;
6209;SDS011;3138;52.550;13.148;2023-02-16T05:07:44;103.20;;;45.97;;
6209;SDS011;3138;52.550;13.148;2023-02-16T05:10:11;67.20;;;33.93;;
6209;SDS011;3138;52.550;13.148;2023-02-16T05:12:38;51.40;;;27.70;;
6209;SDS011;3138;52.550;13.148;2023-02-16T05:15:23;56.27;;;27.27;;
6209;SDS011;3138;52.550;13.148;2023-02-16T05:17:50;48.93;;;25.73;;
6209;SDS011;3138;52.550;13.148;2023-02-16T05:20:18;43.83;;;24.87;;
6209;SDS011;3138;52.550;13.148;2023-02-16T05:23:05;44.23;;;24.97;;
6209;SDS011;3138;52.550;13.148;2023-02-16T05:25:32;41.87;;;24.70;;
6209;SDS011;3138;52.550;13.148;2023-02-16T05:27:59;44.50;;;23.60;;
6209;SDS011;3138;52.550;13.148;2023-02-16T05:30:27;42.23;;;22.40;;
6209;SDS011;3138;52.550;13.148;2023-02-16T05:32:54;45.40;;;21.57;;
6209;SDS011;3138;52.550;13.148;2023-02-16T05:35:21;42.33;;;22.83;;
6209;SDS011;3138;52.550;13.148;2023-02-16T05:37:47;42.80;;;21.90;;
6209;SDS011;3138;52.550;13.148;2023-02-16T05:40:14;38.97;;;21.90;;
6209;SDS011;3138;52.550;13.148;2023-02-16T05:42:41;43.40;;;23.23;;
6209;SDS011;3138;52.550;13.148;2023-02-16T05:45:08;40.53;;;23.30;;
6209;SDS011;3138;52.550;13.148;2023-02-16T05:47:36;36.83;;;21.40;;
6209;SDS011;3138;52.550;13.148;2023-02-16T05:50:06;35.80;;;21.73;;
6209;SDS011;3138;52.550;13.148;2023-02-16T05:52:33;51.57;;;24.40;;
6209;SDS011;3138;52.550;13.148;2023-02-16T05:54:59;48.50;;;23.33;;
6209;SDS011;3138;52.550;13.148;2023-02-16T05:57:26;42.87;;;23.30;;
6209;SDS011;3138;52.550;13.148;2023-02-16T05:59:53;49.73;;;23.87;;
6209;SDS011;3138;52.550;13.148;2023-02-16T06:02:20;51.07;;;25.33;;
6209;SDS011;3138;52.550;13.148;2023-02-16T06:04:48;44.30;;;23.60;;
6209;SDS011;3138;52.550;13.148;2023-02-16T06:07:15;44.73;;;22.57;;
6209;SDS011;3138;52.550;13.148;2023-02-16T06:09:42;45.40;;;23.90;;
6209;SDS011;3138;52.550;13.148;2023-02-16T06:12:08;41.47;;;21.67;;
6209;SDS011;3138;52.550;13.148;2023-02-16T06:14:35;45.13;;;23.80;;
6209;SDS011;3138;52.550;13.148;2023-02-16T06:17:02;44.57;;;22.87;;
6209;SDS011;3138;52.550;13.148;2023-02-16T06:19:29;46.37;;;23.47;;
6209;SDS011;3138;52.550;13.148;2023-02-16T06:21:57;36.43;;;21.37;;
6209;SDS011;3138;52.550;13.148;2023-02-16T06:24:24;43.00;;;23.90;;
6209;SDS011;3138;52.550;13.148;2023-02-16T06:26:51;63.67;;;24.60;;
6209;SDS011;3138;52.550;13.148;2023-02-16T06:29:18;46.43;;;22.70;;
6209;SDS011;3138;52.550;13.148;2023-02-16T06:31:45;43.17;;;22.63;;
6209;SDS011;3138;52.550;13.148;2023-02-16T06:34:11;44.70;;;22.43;;
6209;SDS011;3138;52.550;13.148;2023-02-16T06:36:38;42.83;;;22.30;;
6209;SDS011;3138;52.550;13.148;2023-02-16T06:39:07;43.10;;;23.57;;
6209;SDS011;3138;52.550;13.148;2023-02-16T06:41:33;41.03;;;21.87;;
6209;SDS011;3138;52.550;13.148;2023-02-16T06:44:05;53.70;;;23.37;;
6209;SDS011;3138;52.550;13.148;2023-02-16T06:46:33;103.43;;;45.70;;
6209;SDS011;3138;52.550;13.148;2023-02-16T06:49:00;83.40;;;41.27;;
6209;SDS011;3138;52.550;13.148;2023-02-16T06:51:27;67.03;;;35.07;;
6209;SDS011;3138;52.550;13.148;2023-02-16T06:53:57;57.77;;;28.00;;
6209;SDS011;3138;52.550;13.148;2023-02-16T06:56:26;56.23;;;26.10;;
6209;SDS011;3138;52.550;13.148;2023-02-16T06:58:52;56.87;;;27.27;;
6209;SDS011;3138;52.550;13.148;2023-02-16T07:01:19;53.73;;;28.03;;
6209;SDS011;3138;52.550;13.148;2023-02-16T07:03:49;52.90;;;26.13;;
6209;SDS011;3138;52.550;13.148;2023-02-16T07:06:17;52.53;;;25.13;;
6209;SDS011;3138;52.550;13.148;2023-02-16T07:08:44;48.87;;;24.47;;
6209;SDS011;3138;52.550;13.148;2023-02-16T07:11:11;59.73;;;24.87;;
6209;SDS011;3138;52.550;13.148;2023-02-16T07:13:39;44.37;;;24.77;;
6209;SDS011;3138;52.550;13.148;2023-02-16T07:16:06;53.83;;;24.67;;
6209;SDS011;3138;52.550;13.148;2023-02-16T07:18:33;50.07;;;22.83;;
6209;SDS011;3138;52.550;13.148;2023-02-16T07:21:00;44.80;;;24.67;;
6209;SDS011;3138;52.550;13.148;2023-02-16T07:23:27;49.13;;;25.20;;
6209;SDS011;3138;52.550;13.148;2023-02-16T07:25:54;47.03;;;24.17;;
6209;SDS011;3138;52.550;13.148;2023-02-16T07:28:21;56.93;;;24.30;;
6209;SDS011;3138;52.550;13.148;2023-02-16T07:30:49;53.97;;;24.57;;
6209;SDS011;3138;52.550;13.148;2023-02-16T07:33:16;52.10;;;26.63;;
6209;SDS011;3138;52.550;13.148;2023-02-16T07:35:43;54.60;;;26.73;;
6209;SDS011;3138;52.550;13.148;2023-02-16T07:38:10;51.03;;;25.90;;
6209;SDS011;3138;52.550;13.148;2023-02-16T07:40:37;44.10;;;25.10;;
6209;SDS011;3138;52.550;13.148;2023-02-16T07:43:05;50.07;;;23.30;;
6209;SDS011;3138;52.550;13.148;2023-02-16T07:45:32;60.17;;;27.27;;
6209;SDS011;3138;52.550;13.148;2023-02-16T07:48:01;51.60;;;26.47;;
6209;SDS011;3138;52.550;13.148;2023-02-16T07:50:28;47.07;;;25.60;;
6209;SDS011;3138;52.550;13.148;2023-02-16T07:52:55;52.83;;;27.30;;
6209;SDS011;3138;52.550;13.148;2023-02-16T07:55:22;49.60;;;27.30;;
6209;SDS011;3138;52.550;13.148;2023-02-16T07:57:49;47.67;;;28.37;;
6209;SDS011;3138;52.550;13.148;2023-02-16T08:00:19;50.80;;;25.87;;
6209;SDS011;3138;52.550;13.148;2023-02-16T08:02:47;62.83;;;29.27;;
6209;SDS011;3138;52.550;13.148;2023-02-16T08:05:15;61.33;;;27.17;;
6209;SDS011;3138;52.550;13.148;2023-02-16T08:07:42;57.70;;;25.60;;
6209;SDS011;3138;52.550;13.148;2023-02-16T08:10:10;52.50;;;28.90;;
6209;SDS011;3138;52.550;13.148;2023-02-16T08:12:37;53.70;;;29.50;;
6209;SDS011;3138;52.550;13.148;2023-02-16T08:15:04;55.63;;;27.43;;
6209;SDS011;3138;52.550;13.148;2023-02-16T08:17:32;77.70;;;28.00;;
6209;SDS011;3138;52.550;13.148;2023-02-16T08:19:59;54.47;;;30.13;;
6209;SDS011;3138;52.550;13.148;2023-02-16T08:22:28;59.57;;;31.20;;
6209;SDS011;3138;52.550;13.148;2023-02-16T08:24:55;51.87;;;27.73;;
6209;SDS011;3138;52.550;13.148;2023-02-16T08:27:23;51.37;;;26.30;;
6209;SDS011;3138;52.550;13.148;2023-02-16T08:29:50;68.70;;;30.40;;
6209;SDS011;3138;52.550;13.148;2023-02-16T08:32:17;55.73;;;29.17;;
6209;SDS011;3138;52.550;13.148;2023-02-16T08:34:45;51.70;;;28.80;;
6209;SDS011;3138;52.550;13.148;2023-02-16T08:37:12;62.07;;;31.60;;
6209;SDS011;3138;52.550;13.148;2023-02-16T08:39:40;68.60;;;31.90;;
6209;SDS011;3138;52.550;13.148;2023-02-16T08:42:08;64.17;;;31.17;;
6209;SDS011;3138;52.550;13.148;2023-02-16T08:44:37;53.70;;;30.03;;
6209;SDS011;3138;52.550;13.148;2023-02-16T08:47:06;58.20;;;30.90;;
6209;SDS011;3138;52.550;13.148;2023-02-16T08:49:33;60.43;;;31.20;;
6209;SDS011;3138;52.550;13.148;2023-02-16T08:52:00;55.77;;;31.17;;
6209;SDS011;3138;52.550;13.148;2023-02-16T08:54:28;58.47;;;29.93;;
6209;SDS011;3138;52.550;13.148;2023-02-16T08:56:58;70.67;;;29.83;;
6209;SDS011;3138;52.550;13.148;2023-02-16T08:59:26;65.20;;;30.90;;
6209;SDS011;3138;52.550;13.148;2023-02-16T09:01:54;67.87;;;32.93;;
6209;SDS011;3138;52.550;13.148;2023-02-16T09:04:21;55.43;;;29.70;;
6209;SDS011;3138;52.550;13.148;2023-02-16T09:06:48;57.20;;;30.67;;
6209;SDS011;3138;52.550;13.148;2023-02-16T09:09:16;59.20;;;29.90;;
6209;SDS011;3138;52.550;13.148;2023-02-16T09:11:43;68.40;;;33.83;;
6209;SDS011;3138;52.550;13.148;2023-02-16T09:14:12;58.83;;;29.83;;
6209;SDS011;3138;52.550;13.148;2023-02-16T09:16:40;48.93;;;29.83;;
6209;SDS011;3138;52.550;13.148;2023-02-16T09:19:10;58.10;;;30.07;;
6209;SDS011;3138;52.550;13.148;2023-02-16T09:21:38;56.77;;;30.47;;
6209;SDS011;3138;52.550;13.148;2023-02-16T09:24:06;53.83;;;30.00;;
6209;SDS011;3138;52.550;13.148;2023-02-16T09:26:34;59.30;;;30.50;;
6209;SDS011;3138;52.550;13.148;2023-02-16T09:29:02;55.27;;;29.60;;
6209;SDS011;3138;52.550;13.148;2023-02-16T09:31:32;62.03;;;31.63;;
6209;SDS011;3138;52.550;13.148;2023-02-16T09:34:01;62.00;;;29.57;;
6209;SDS011;3138;52.550;13.148;2023-02-16T09:36:29;53.43;;;28.77;;
6209;SDS011;3138;52.550;13.148;2023-02-16T09:38:57;57.50;;;28.70;;
6209;SDS011;3138;52.550;13.148;2023-02-16T09:41:27;57.77;;;31.60;;
6209;SDS011;3138;52.550;13.148;2023-02-16T09:43:58;62.07;;;29.53;;
6209;SDS011;3138;52.550;13.148;2023-02-16T09:46:32;58.17;;;31.63;;
6209;SDS011;3138;52.550;13.148;2023-02-16T09:49:01;62.83;;;31.97;;
6209;SDS011;3138;52.550;13.148;2023-02-16T09:51:31;65.33;;;32.70;;
6209;SDS011;3138;52.550;13.148;2023-02-16T09:54:04;68.00;;;29.90;;
6209;SDS011;3138;52.550;13.148;2023-02-16T09:56:42;58.20;;;30.33;;
6209;SDS011;3138;52.550;13.148;2023-02-16T09:59:17;54.70;;;29.80;;
6209;SDS011;3138;52.550;13.148;2023-02-16T10:01:54;64.00;;;29.50;;
6209;SDS011;3138;52.550;13.148;2023-02-16T10:04:28;59.83;;;33.20;;
6209;SDS011;3138;52.550;13.148;2023-02-16T10:07:04;71.23;;;30.97;;
6209;SDS011;3138;52.550;13.148;2023-02-16T10:09:42;63.37;;;30.47;;
6209;SDS011;3138;52.550;13.148;2023-02-16T10:12:14;60.87;;;32.00;;
6209;SDS011;3138;52.550;13.148;2023-02-16T10:14:46;53.33;;;29.37;;
6209;SDS011;3138;52.550;13.148;2023-02-16T10:17:18;59.63;;;31.53;;
6209;SDS011;3138;52.550;13.148;2023-02-16T10:19:54;57.80;;;30.00;;
6209;SDS011;3138;52.550;13.148;2023-02-16T10:22:26;55.93;;;30.53;;
6209;SDS011;3138;52.550;13.148;2023-02-16T10:24:57;57.40;;;31.10;;
6209;SDS011;3138;52.550;13.148;2023-02-16T10:27:27;53.10;;;29.73;;
6209;SDS011;3138;52.550;13.148;2023-02-16T10:30:00;57.43;;;30.90;;
6209;SDS011;3138;52.550;13.148;2023-02-16T10:32:29;60.93;;;29.60;;
6209;SDS011;3138;52.550;13.148;2023-02-16T10:35:08;57.27;;;28.53;;
6209;SDS011;3138;52.550;13.148;2023-02-16T10:40:33;60.73;;;30.77;;
6209;SDS011;3138;52.550;13.148;2023-02-16T10:43:10;59.50;;;30.40;;
6209;SDS011;3138;52.550;13.148;2023-02-16T10:45:42;50.60;;;28.20;;
6209;SDS011;3138;52.550;13.148;2023-02-16T10:48:16;59.60;;;28.40;;
6209;SDS011;3138;52.550;13.148;2023-02-16T10:50:47;58.07;;;30.87;;
6209;SDS011;3138;52.550;13.148;2023-02-16T10:53:23;55.50;;;30.50;;
6209;SDS011;3138;52.550;13.148;2023-02-16T10:56:00;56.33;;;29.50;;
6209;SDS011;3138;52.550;13.148;2023-02-16T10:58:30;65.10;;;29.57;;
6209;SDS011;3138;52.550;13.148;2023-02-16T11:01:04;52.10;;;30.57;;
6209;SDS011;3138;52.550;13.148;2023-02-16T11:03:42;50.93;;;29.87;;
6209;SDS011;3138;52.550;13.148;2023-02-16T11:06:12;52.33;;;30.50;;
6209;SDS011;3138;52.550;13.148;2023-02-16T11:08:45;62.80;;;29.70;;
6209;SDS011;3138;52.550;13.148;2023-02-16T11:11:14;60.37;;;31.20;;
6209;SDS011;3138;52.550;13.148;2023-02-16T11:13:42;58.00;;;31.30;;
6209;SDS011;3138;52.550;13.148;2023-02-16T11:16:17;59.00;;;31.60;;
6209;SDS011;3138;52.550;13.148;2023-02-16T11:18:48;56.07;;;31.97;;
6209;SDS011;3138;52.550;13.148;2023-02-16T11:21:40;56.60;;;30.13;;
6209;SDS011;3138;52.550;13.148;2023-02-16T11:24:09;65.70;;;32.93;;
6209;SDS011;3138;52.550;13.148;2023-02-16T11:26:38;61.27;;;31.97;;
6209;SDS011;3138;52.550;13.148;2023-02-16T11:29:06;71.00;;;35.17;;
6209;SDS011;3138;52.550;13.148;2023-02-16T11:31:43;59.27;;;31.07;;
6209;SDS011;3138;52.550;13.148;2023-02-16T11:34:12;50.50;;;28.43;;
6209;SDS011;3138;52.550;13.148;2023-02-16T11:36:49;66.97;;;32.47;;
6209;SDS011;3138;52.550;13.148;2023-02-16T11:39:18;52.73;;;29.70;;
6209;SDS011;3138;52.550;13.148;2023-02-16T11:41:47;59.80;;;30.73;;
6209;SDS011;3138;52.550;13.148;2023-02-16T11:44:19;60.70;;;31.37;;
6209;SDS011;3138;52.550;13.148;2023-02-16T11:46:52;61.90;;;32.47;;
6209;SDS011;3138;52.550;13.148;2023-02-16T11:49:27;58.23;;;31.10;;
6209;SDS011;3138;52.550;13.148;2023-02-16T11:51:56;56.63;;;29.77;;
6209;SDS011;3138;52.550;13.148;2023-02-16T11:54:23;55.70;;;30.17;;
6209;SDS011;3138;52.550;13.148;2023-02-16T11:57:01;57.37;;;30.10;;
6209;SDS011;3138;52.550;13.148;2023-02-16T11:59:31;57.73;;;32.93;;
6209;SDS011;3138;52.550;13.148;2023-02-16T12:02:13;52.73;;;27.93;;
6209;SDS011;3138;52.550;13.148;2023-02-16T12:05:18;59.17;;;31.03;;
6209;SDS011;3138;52.550;13.148;2023-02-16T12:07:53;54.83;;;29.37;;
6209;SDS011;3138;52.550;13.148;2023-02-16T12:10:35;55.27;;;29.47;;
6209;SDS011;3138;52.550;13.148;2023-02-16T12:13:09;51.57;;;28.57;;
6209;SDS011;3138;52.550;13.148;2023-02-16T12:15:44;66.73;;;28.37;;
6209;SDS011;3138;52.550;13.148;2023-02-16T12:18:18;51.90;;;29.97;;
6209;SDS011;3138;52.550;13.148;2023-02-16T12:20:57;64.90;;;29.90;;
6209;SDS011;3138;52.550;13.148;2023-02-16T12:23:36;59.50;;;30.80;;
6209;SDS011;3138;52.550;13.148;2023-02-16T12:26:22;54.40;;;28.63;;
6209;SDS011;3138;52.550;13.148;2023-02-16T12:29:00;57.37;;;31.57;;
6209;SDS011;3138;52.550;13.148;2023-02-16T12:31:38;57.30;;;28.63;;
6209;SDS011;3138;52.550;13.148;2023-02-16T12:34:18;51.00;;;27.80;;
6209;SDS011;3138;52.550;13.148;2023-02-16T12:36:54;51.83;;;28.43;;
6209;SDS011;3138;52.550;13.148;2023-02-16T12:39:29;58.80;;;29.60;;
6209;SDS011;3138;52.550;13.148;2023-02-16T12:42:20;52.53;;;28.20;;
6209;SDS011;3138;52.550;13.148;2023-02-16T12:45:00;58.63;;;28.90;;
6209;SDS011;3138;52.550;13.148;2023-02-16T12:47:31;48.70;;;27.47;;
6209;SDS011;3138;52.550;13.148;2023-02-16T12:50:03;54.53;;;28.20;;
6209;SDS011;3138;52.550;13.148;2023-02-16T12:52:41;47.30;;;27.00;;
6209;SDS011;3138;52.550;13.148;2023-02-16T12:55:16;55.10;;;28.50;;
6209;SDS011;3138;52.550;13.148;2023-02-16T12:57:48;54.30;;;28.63;;
6209;SDS011;3138;52.550;13.148;2023-02-16T13:00:21;44.10;;;26.17;;
6209;SDS011;3138;52.550;13.148;2023-02-16T13:02:54;51.97;;;28.40;;
6209;SDS011;3138;52.550;13.148;2023-02-16T13:05:33;48.90;;;25.40;;
6209;SDS011;3138;52.550;13.148;2023-02-16T13:08:07;55.23;;;27.90;;
6209;SDS011;3138;52.550;13.148;2023-02-16T13:10:46;50.37;;;26.50;;
6209;SDS011;3138;52.550;13.148;2023-02-16T13:13:20;55.40;;;27.80;;
6209;SDS011;3138;52.550;13.148;2023-02-16T13:15:51;56.43;;;28.80;;
6209;SDS011;3138;52.550;13.148;2023-02-16T13:18:24;52.90;;;27.07;;
6209;SDS011;3138;52.550;13.148;2023-02-16T13:20:55;52.30;;;27.53;;
6209;SDS011;3138;52.550;13.148;2023-02-16T13:32:18;52.57;;;26.93;;
6209;SDS011;3138;52.550;13.148;2023-02-16T13:35:14;54.13;;;25.47;;
6209;SDS011;3138;52.550;13.148;2023-02-16T13:37:57;54.47;;;27.07;;
6209;SDS011;3138;52.550;13.148;2023-02-16T13:40:37;47.47;;;26.33;;
6209;SDS011;3138;52.550;13.148;2023-02-16T13:43:22;55.23;;;28.20;;
6209;SDS011;3138;52.550;13.148;2023-02-16T13:45:55;48.17;;;25.83;;
6209;SDS011;3138;52.550;13.148;2023-02-16T13:48:25;53.60;;;25.20;;
6209;SDS011;3138;52.550;13.148;2023-02-16T13:50:54;44.07;;;25.50;;
6209;SDS011;3138;52.550;13.148;2023-02-16T13:53:23;49.33;;;26.17;;
6209;SDS011;3138;52.550;13.148;2023-02-16T13:55:59;50.83;;;25.73;;
6209;SDS011;3138;52.550;13.148;2023-02-16T13:58:55;53.27;;;26.77;;
6209;SDS011;3138;52.550;13.148;2023-02-16T14:01:33;49.43;;;26.83;;
6209;SDS011;3138;52.550;13.148;2023-02-16T14:04:09;49.20;;;27.40;;
6209;SDS011;3138;52.550;13.148;2023-02-16T14:06:39;53.60;;;26.17;;
6209;SDS011;3138;52.550;13.148;2023-02-16T14:12:15;60.33;;;25.47;;
6209;SDS011;3138;52.550;13.148;2023-02-16T14:14:55;56.20;;;26.50;;
6209;SDS011;3138;52.550;13.148;2023-02-16T14:17:27;45.43;;;24.93;;
6209;SDS011;3138;52.550;13.148;2023-02-16T14:19:57;54.13;;;27.37;;
6209;SDS011;3138;52.550;13.148;2023-02-16T14:22:30;55.23;;;26.03;;
6209;SDS011;3138;52.550;13.148;2023-02-16T14:25:05;61.77;;;26.97;;
6209;SDS011;3138;52.550;13.148;2023-02-16T14:27:59;63.10;;;26.33;;
6209;SDS011;3138;52.550;13.148;2023-02-16T14:30:27;47.77;;;25.77;;
6209;SDS011;3138;52.550;13.148;2023-02-16T14:33:00;54.70;;;26.77;;
6209;SDS011;3138;52.550;13.148;2023-02-16T14:35:34;46.60;;;25.73;;
6209;SDS011;3138;52.550;13.148;2023-02-16T14:38:02;53.63;;;27.67;;
6209;SDS011;3138;52.550;13.148;2023-02-16T14:40:42;52.77;;;25.90;;
6209;SDS011;3138;52.550;13.148;2023-02-16T14:43:26;44.60;;;25.07;;
6209;SDS011;3138;52.550;13.148;2023-02-16T14:49:03;44.17;;;23.03;;
6209;SDS011;3138;52.550;13.148;2023-02-16T14:55:16;55.47;;;26.20;;
6209;SDS011;3138;52.550;13.148;2023-02-16T14:57:57;50.13;;;24.43;;
6209;SDS011;3138;52.550;13.148;2023-02-16T15:00:33;44.60;;;24.70;;
6209;SDS011;3138;52.550;13.148;2023-02-16T15:03:14;48.37;;;24.90;;
6209;SDS011;3138;52.550;13.148;2023-02-16T15:05:45;47.70;;;24.83;;
6209;SDS011;3138;52.550;13.148;2023-02-16T15:08:18;47.00;;;25.87;;
6209;SDS011;3138;52.550;13.148;2023-02-16T15:10:47;61.13;;;25.03;;
6209;SDS011;3138;52.550;13.148;2023-02-16T15:13:18;47.53;;;23.47;;
6209;SDS011;3138;52.550;13.148;2023-02-16T15:15:48;48.73;;;24.03;;
6209;SDS011;3138;52.550;13.148;2023-02-16T15:18:18;53.53;;;24.23;;
6209;SDS011;3138;52.550;13.148;2023-02-16T15:20:49;55.60;;;24.50;;